Aeroporto :
LOGIN :

Iscrizione | Disclaimer

   EN    FR    IT 

 










Sommario :    VFR   VFR Marginale   IFR   IFR Intensivo   IFR Molto Intensivo
Visibilità : 
Base nubi : 
>= 8 km
>= 3000ft
5 / 8 km
1000 / 3000 ft
1500m / 5 km
500 / 1000 ft
800 / 1500m
200 / 500 ft
< 800m
< 200 ft
Simboli :   Temporali  Nebbia  Neve Forte  Precipitazioni Forti  Vento > 20 kt
SIGMETs :   Varie  Temporali  Ghiacco  Turbolenza  Onda orograficha  Ceneri Vulcaniche






- Altitudine del aeroporto : 306 ft
- Codice IATA : EMA


EGNX - Nottingham East Midlands

ULTIMO METAR :
  • 151820Z 36012KT 330V030 9999 FEW021 BKN035 07/04 Q1005

METARs OBSOLETI :
  • 151750Z 01012KT 330V040 9999 SCT024 SCT039 07/04 Q1006
  • 151720Z 01012KT 340V050 9999 FEW015 07/04 Q1005
  • 151650Z 36010KT 330V030 9999 BKN018 07/05 Q1005
  • 151620Z 36011KT 330V040 9999 BKN019 07/05 Q1005
  • 151550Z 01011KT 320V040 9999 BKN016 07/05 Q1006

TAF TAF EGNX
Valido dal 15 a 18 ore il 16 a 18 ore UTC


151702Z 1518/1618 01010KT 9999 FEW012 BKN018
PROB30
TEMPO 1518/1521 6000 SHRA BKN012
BECMG 1521/1524 VRB03KT 6000 FEW004 BKN008
TEMPO 1521/1605 4500 -RA
PROB40
TEMPO 1522/1605 RA BKN004
PROB40 1605/1610 3000 BR BKN003
BECMG 1610/1613 9999 FEW005 SCT035
PROB30
TEMPO 1613/1616 BKN012
PROB40 1616/1618 BKN007
ATIS : +44 1332 852 852 (ext 3201)



MetMap, La meteo Aeronautica in un colpo d'occhio ! - Copyright ORBIFLY Dicembre 2007 - Disclaimer

ORBIFLY MET'MAP TEAM :

Programmazione e sviluppo : Alexandra Zaïnal
Concezione e sviluppo : Baudouin d'Aumeries
Co-Programmazione e sviluppo : Marc-Olivier Méhu
Supporto tecnico e logistico : Manuel Goepfert
Aiuto per la traduzione : Arnaldo La Scala

Contatto : metmap@orbifly.com




FONTI E CREDITI :

   NOAA